createdAt,value
2022-10-19T00:02:13.584Z,11.30
2022-10-19T00:04:41.766Z,11.30
2022-10-19T00:07:09.886Z,11.20
2022-10-19T00:09:39.829Z,11.10
2022-10-19T00:12:08.001Z,11.00
2022-10-19T00:14:36.174Z,11.00
2022-10-19T00:17:04.319Z,10.90
2022-10-19T00:19:32.646Z,10.80
2022-10-19T00:22:01.352Z,10.70
2022-10-19T00:24:29.656Z,10.70
2022-10-19T00:26:59.354Z,10.60
2022-10-19T00:29:27.515Z,10.60
2022-10-19T00:31:55.660Z,10.50
2022-10-19T00:34:23.881Z,10.40
2022-10-19T00:36:52.123Z,10.40
2022-10-19T00:39:20.594Z,10.40
2022-10-19T00:41:49.634Z,10.30
2022-10-19T00:44:55.374Z,10.30
2022-10-19T00:47:28.178Z,10.20
2022-10-19T00:49:58.540Z,10.20
2022-10-19T00:52:27.733Z,10.10
2022-10-19T00:54:57.599Z,10.10
2022-10-19T00:57:29.409Z,10.10
2022-10-19T00:59:58.753Z,10.10
2022-10-19T01:02:30.611Z,10.10
2022-10-19T01:05:00.465Z,10.10
2022-10-19T01:07:28.990Z,10.10
2022-10-19T01:09:57.916Z,10.10
2022-10-19T01:12:59.607Z,10.10
2022-10-19T01:15:37.257Z,10.10
2022-10-19T01:18:13.601Z,10.10
2022-10-19T01:21:15.185Z,10.20
2022-10-19T01:24:40.564Z,10.20
2022-10-19T01:27:44.855Z,10.20
2022-10-19T01:30:34.845Z,10.30
2022-10-19T01:33:25.275Z,10.30
2022-10-19T01:36:05.730Z,10.30
2022-10-19T01:38:39.092Z,10.30
2022-10-19T01:41:16.745Z,10.30
2022-10-19T01:43:50.066Z,10.20
2022-10-19T01:46:23.636Z,10.20
2022-10-19T01:48:57.202Z,10.30
2022-10-19T01:51:30.091Z,10.30
2022-10-19T01:54:01.986Z,10.20
2022-10-19T01:56:33.057Z,10.30
2022-10-19T01:59:06.112Z,10.30
2022-10-19T02:01:42.528Z,10.30
2022-10-19T02:04:12.409Z,10.30
2022-10-19T02:06:41.079Z,10.30
2022-10-19T02:09:10.363Z,10.30
2022-10-19T02:11:39.210Z,10.30
2022-10-19T02:14:14.410Z,10.40
2022-10-19T02:16:48.772Z,10.30
2022-10-19T02:19:17.492Z,10.40
2022-10-19T02:21:46.039Z,10.30
2022-10-19T02:24:14.206Z,10.30
2022-10-19T02:26:43.696Z,10.30
2022-10-19T02:29:14.745Z,10.30
2022-10-19T02:31:45.463Z,10.30
2022-10-19T02:34:14.416Z,10.20
2022-10-19T02:36:42.795Z,10.20
2022-10-19T02:39:11.353Z,10.10
2022-10-19T02:41:43.607Z,10.00
2022-10-19T02:44:19.462Z,10.00
2022-10-19T02:46:53.595Z,10.00
2022-10-19T02:49:22.542Z,9.90
2022-10-19T02:51:59.826Z,9.90
2022-10-19T02:54:40.610Z,9.90
2022-10-19T02:57:16.651Z,9.80
2022-10-19T02:59:45.364Z,9.80
2022-10-19T03:02:15.484Z,9.80
2022-10-19T03:04:44.766Z,9.80
2022-10-19T03:07:15.865Z,9.70
2022-10-19T03:09:45.778Z,9.70
2022-10-19T03:12:15.115Z,9.70
2022-10-19T03:14:43.454Z,9.70
2022-10-19T03:17:11.866Z,9.80
2022-10-19T03:19:44.120Z,9.70
2022-10-19T03:22:13.805Z,9.70
2022-10-19T03:24:42.078Z,9.70
2022-10-19T03:27:10.323Z,9.70
2022-10-19T03:29:38.465Z,9.80
2022-10-19T03:32:06.874Z,9.80
2022-10-19T03:34:35.244Z,9.80
2022-10-19T03:37:04.952Z,9.80
2022-10-19T03:39:36.361Z,9.80
2022-10-19T03:42:04.685Z,9.90
2022-10-19T03:44:59.327Z,9.90
2022-10-19T03:47:27.816Z,9.90
2022-10-19T03:49:56.228Z,9.90
2022-10-19T03:52:25.952Z,9.80
2022-10-19T03:54:54.249Z,9.90
2022-10-19T03:57:22.615Z,9.90
2022-10-19T03:59:50.879Z,9.90
2022-10-19T04:02:19.219Z,9.90
2022-10-19T04:04:47.459Z,9.90
2022-10-19T04:07:44.090Z,9.90
2022-10-19T04:10:13.833Z,9.90
2022-10-19T04:12:51.640Z,9.90
2022-10-19T04:15:21.988Z,9.90
2022-10-19T04:17:50.260Z,9.80
2022-10-19T04:20:26.159Z,9.90
2022-10-19T04:22:54.597Z,9.90
2022-10-19T04:25:24.407Z,9.90
2022-10-19T04:27:52.713Z,10.00
2022-10-19T04:30:21.018Z,10.00
2022-10-19T04:32:55.300Z,9.90
2022-10-19T04:35:36.825Z,10.00
2022-10-19T04:38:05.156Z,9.90
2022-10-19T04:40:39.146Z,9.90
2022-10-19T04:43:07.438Z,9.90
2022-10-19T04:45:36.710Z,9.90
2022-10-19T04:48:08.432Z,9.90
2022-10-19T04:50:36.694Z,9.90
2022-10-19T04:53:06.291Z,9.90
2022-10-19T04:55:37.328Z,9.90
2022-10-19T04:58:06.899Z,9.90
2022-10-19T05:00:40.281Z,9.90
2022-10-19T05:03:08.828Z,10.40
2022-10-19T05:05:37.493Z,9.90
2022-10-19T05:08:06.324Z,9.90
2022-10-19T05:10:34.860Z,9.90
2022-10-19T05:13:03.543Z,9.90
2022-10-19T05:15:33.676Z,9.90
2022-10-19T05:18:02.770Z,9.90
2022-10-19T05:20:31.042Z,9.80
2022-10-19T05:23:03.270Z,9.80
2022-10-19T05:25:37.207Z,9.90
2022-10-19T05:28:05.538Z,9.80
2022-10-19T05:30:39.140Z,9.80
2022-10-19T05:33:07.547Z,9.80
2022-10-19T05:35:41.914Z,9.80
2022-10-19T05:38:10.368Z,9.80
2022-10-19T05:40:38.611Z,9.70
2022-10-19T05:43:06.976Z,9.80
2022-10-19T05:45:35.302Z,9.80
2022-10-19T05:48:05.579Z,9.80
2022-10-19T05:50:33.898Z,9.90
2022-10-19T05:53:02.150Z,9.80
2022-10-19T05:55:30.559Z,9.80
2022-10-19T05:57:58.808Z,9.80
2022-10-19T06:00:30.158Z,9.80
2022-10-19T06:02:59.186Z,9.80
2022-10-19T06:05:29.004Z,9.90
2022-10-19T06:07:57.416Z,9.80
2022-10-19T06:10:25.819Z,9.80
2022-10-19T06:12:54.210Z,9.90
2022-10-19T06:15:25.573Z,9.90
2022-10-19T06:17:53.880Z,10.00
2022-10-19T06:20:31.671Z,10.00
2022-10-19T06:23:01.979Z,10.00
2022-10-19T06:25:31.282Z,10.00
2022-10-19T06:28:00.271Z,10.00
2022-10-19T06:30:29.092Z,10.00
2022-10-19T06:32:57.788Z,10.00
2022-10-19T06:35:26.415Z,10.00
2022-10-19T06:37:59.733Z,10.10
2022-10-19T06:40:30.923Z,10.10
2022-10-19T06:42:59.284Z,10.10
2022-10-19T06:45:31.119Z,10.10
2022-10-19T06:48:06.580Z,10.10
2022-10-19T06:50:36.547Z,10.10
2022-10-19T06:53:04.934Z,10.10
2022-10-19T06:55:36.795Z,10.20
2022-10-19T06:58:08.739Z,10.20
2022-10-19T07:00:37.099Z,10.30
2022-10-19T07:03:07.542Z,10.30
2022-10-19T07:05:35.868Z,10.30
2022-10-19T07:08:04.431Z,10.30
2022-10-19T07:10:40.324Z,10.30
2022-10-19T07:15:38.022Z,10.40
2022-10-19T07:18:06.431Z,10.40
2022-10-19T07:20:34.786Z,10.50
2022-10-19T07:23:08.698Z,10.60
2022-10-19T07:25:39.204Z,10.60
2022-10-19T07:28:07.604Z,10.60
2022-10-19T07:30:39.376Z,10.60
2022-10-19T07:33:10.438Z,10.70
2022-10-19T07:35:38.771Z,10.70
2022-10-19T07:38:06.979Z,10.80
2022-10-19T07:40:35.302Z,10.80
2022-10-19T07:43:05.068Z,10.90
2022-10-19T07:45:34.074Z,11.00
2022-10-19T07:48:02.381Z,11.00
2022-10-19T07:50:30.636Z,11.00
2022-10-19T07:52:58.989Z,11.00
2022-10-19T07:55:27.309Z,11.00
2022-10-19T07:57:55.561Z,11.10
2022-10-19T08:00:25.478Z,11.20
2022-10-19T08:03:00.210Z,11.20
2022-10-19T08:05:42.103Z,11.30
2022-10-19T08:08:11.640Z,11.30
2022-10-19T08:10:39.906Z,11.20
2022-10-19T08:13:09.209Z,11.10
2022-10-19T08:15:39.034Z,10.90
2022-10-19T08:18:07.306Z,10.80
2022-10-19T08:20:35.461Z,10.80
2022-10-19T08:23:03.581Z,10.70
2022-10-19T08:25:31.773Z,10.70
2022-10-19T08:28:00.046Z,10.70
2022-10-19T08:30:28.576Z,10.70
2022-10-19T08:32:58.251Z,10.70
2022-10-19T08:35:26.674Z,10.70
2022-10-19T08:37:56.540Z,10.70
2022-10-19T08:40:29.633Z,10.60
2022-10-19T08:43:03.026Z,10.60
2022-10-19T08:45:43.914Z,10.60
2022-10-19T08:48:23.828Z,10.60
2022-10-19T08:50:52.807Z,10.70
2022-10-19T08:53:32.970Z,10.60
2022-10-19T08:56:26.976Z,10.60
2022-10-19T08:59:13.927Z,10.70
2022-10-19T09:01:48.201Z,10.70
2022-10-19T09:04:23.868Z,10.80
2022-10-19T09:07:08.289Z,10.80
2022-10-19T09:09:40.638Z,11.00
2022-10-19T09:12:16.022Z,11.00
2022-10-19T09:14:57.058Z,11.10
2022-10-19T09:17:26.007Z,11.20
2022-10-19T09:20:01.468Z,11.20
2022-10-19T09:22:36.245Z,11.20
2022-10-19T09:25:13.122Z,11.20
2022-10-19T09:27:45.592Z,11.20
2022-10-19T09:30:20.404Z,11.30
2022-10-19T09:32:49.728Z,11.40
2022-10-19T09:35:26.635Z,11.40
2022-10-19T09:37:55.282Z,11.50
2022-10-19T09:40:25.291Z,11.70
2022-10-19T09:42:57.323Z,11.90
2022-10-19T09:45:36.385Z,11.90
2022-10-19T09:48:15.226Z,12.00
2022-10-19T09:50:46.588Z,12.00
2022-10-19T09:53:20.800Z,11.80
2022-10-19T09:55:58.137Z,11.50
2022-10-19T09:58:32.071Z,11.30
2022-10-19T10:01:02.323Z,10.90
2022-10-19T10:03:32.130Z,10.70
2022-10-19T10:06:05.114Z,10.60
2022-10-19T10:08:36.873Z,10.50
2022-10-19T10:11:09.564Z,10.40
2022-10-19T10:13:40.620Z,10.40
2022-10-19T10:16:11.146Z,10.30
2022-10-19T10:18:52.358Z,10.40
2022-10-19T10:21:25.893Z,10.50
2022-10-19T10:24:05.372Z,10.70
2022-10-19T10:26:38.839Z,11.00
2022-10-19T10:29:19.130Z,11.20
2022-10-19T10:31:49.299Z,11.20
2022-10-19T10:34:28.411Z,11.30
2022-10-19T10:37:11.951Z,11.50
2022-10-19T10:39:42.731Z,11.70
2022-10-19T10:42:16.537Z,11.70
2022-10-19T10:44:47.749Z,11.70
2022-10-19T10:47:17.978Z,11.60
2022-10-19T10:49:55.145Z,11.70
2022-10-19T10:52:27.693Z,11.80
2022-10-19T10:55:01.562Z,11.80
2022-10-19T10:57:33.396Z,12.00
2022-10-19T11:00:08.156Z,12.00
2022-10-19T11:02:42.699Z,12.00
2022-10-19T11:05:19.602Z,12.00
2022-10-19T11:07:53.146Z,11.90
2022-10-19T11:10:27.437Z,11.80
2022-10-19T11:13:04.438Z,11.70
2022-10-19T11:15:38.721Z,11.70
2022-10-19T11:18:17.990Z,11.80
2022-10-19T11:20:55.417Z,11.70
2022-10-19T11:23:41.516Z,11.80
2022-10-19T11:26:21.291Z,11.80
2022-10-19T11:29:03.587Z,11.80
2022-10-19T11:31:41.553Z,11.70
2022-10-19T11:34:26.104Z,11.70
2022-10-19T11:37:03.605Z,11.80
2022-10-19T11:39:45.077Z,11.90
2022-10-19T11:42:24.988Z,11.90
2022-10-19T11:45:06.015Z,11.90
2022-10-19T11:47:53.795Z,11.80
2022-10-19T11:50:32.301Z,11.80
2022-10-19T11:53:06.802Z,11.90
2022-10-19T11:55:46.321Z,11.90
2022-10-19T11:58:34.701Z,11.90
2022-10-19T12:01:13.919Z,11.90
2022-10-19T12:04:20.999Z,11.80
2022-10-19T12:06:58.658Z,11.70
2022-10-19T12:09:36.446Z,11.80
2022-10-19T12:12:24.514Z,11.70
2022-10-19T12:14:55.933Z,11.70
2022-10-19T12:17:27.998Z,11.70
2022-10-19T12:19:59.817Z,11.70
2022-10-19T12:22:30.777Z,11.70
2022-10-19T12:25:01.707Z,11.60
2022-10-19T12:27:35.432Z,11.70
2022-10-19T12:30:07.957Z,11.60
2022-10-19T12:32:59.485Z,11.50
2022-10-19T12:35:36.500Z,11.30
2022-10-19T12:38:14.046Z,11.10
2022-10-19T12:40:47.346Z,11.00
2022-10-19T12:43:21.994Z,10.90
2022-10-19T12:45:56.171Z,10.90
2022-10-19T12:48:25.605Z,10.90
2022-10-19T12:51:22.110Z,10.90
2022-10-19T12:53:50.880Z,10.90
2022-10-19T12:56:22.225Z,11.00
2022-10-19T12:58:56.290Z,11.00
2022-10-19T13:01:28.229Z,10.90
2022-10-19T13:04:10.832Z,10.80
2022-10-19T13:06:43.730Z,10.80
2022-10-19T13:09:25.415Z,10.70
2022-10-19T13:12:28.771Z,10.70
2022-10-19T13:14:59.426Z,10.80
2022-10-19T13:17:46.354Z,10.90
2022-10-19T13:20:49.218Z,11.00
2022-10-19T13:23:40.426Z,11.20
2022-10-19T13:26:33.260Z,11.30
2022-10-19T13:29:01.964Z,11.40
2022-10-19T13:31:34.617Z,11.30
2022-10-19T13:34:11.535Z,11.40
2022-10-19T13:36:40.381Z,11.40
2022-10-19T13:39:16.312Z,11.30
2022-10-19T13:41:56.310Z,11.20
2022-10-19T13:44:33.479Z,11.10
2022-10-19T13:47:34.327Z,11.10
2022-10-19T13:50:32.438Z,11.20
2022-10-19T13:53:24.811Z,11.10
2022-10-19T13:56:06.158Z,11.10
2022-10-19T13:59:16.009Z,11.10
2022-10-19T14:02:13.419Z,11.00
2022-10-19T14:04:51.700Z,10.80
2022-10-19T14:07:25.628Z,10.50
2022-10-19T14:10:09.403Z,10.30
2022-10-19T14:12:42.895Z,10.00
2022-10-19T14:15:22.999Z,9.90
2022-10-19T14:17:51.243Z,9.70
2022-10-19T14:20:33.042Z,9.50
2022-10-19T14:23:19.540Z,9.40
2022-10-19T14:25:52.452Z,9.30
2022-10-19T14:28:22.315Z,9.20
2022-10-19T14:30:57.301Z,9.10
2022-10-19T14:33:27.113Z,9.10
2022-10-19T14:35:57.325Z,9.10
2022-10-19T14:38:32.778Z,9.00
2022-10-19T14:41:01.005Z,9.00
2022-10-19T14:43:31.137Z,8.90
2022-10-19T14:46:12.069Z,8.90
2022-10-19T14:48:41.499Z,8.90
2022-10-19T14:51:28.008Z,8.90
2022-10-19T14:54:01.519Z,8.80
2022-10-19T14:56:35.351Z,8.80
2022-10-19T14:59:08.017Z,8.80
2022-10-19T15:01:36.997Z,8.70
2022-10-19T15:04:05.741Z,8.70
2022-10-19T15:06:38.171Z,8.60
2022-10-19T15:09:15.320Z,8.60
2022-10-19T15:11:54.587Z,8.60
2022-10-19T15:14:27.119Z,8.50
2022-10-19T15:16:57.043Z,8.50
2022-10-19T15:19:29.793Z,8.50
2022-10-19T15:22:17.810Z,8.50
2022-10-19T15:24:58.293Z,8.50
2022-10-19T15:27:32.630Z,8.40
2022-10-19T15:30:02.549Z,8.40
2022-10-19T15:32:36.822Z,8.40
2022-10-19T15:35:13.571Z,8.30
2022-10-19T15:37:45.529Z,8.30
2022-10-19T15:40:19.325Z,8.40
2022-10-19T15:42:48.989Z,8.20
2022-10-19T15:45:35.636Z,8.10
2022-10-19T15:48:48.106Z,8.10
2022-10-19T15:51:44.134Z,7.90
2022-10-19T15:54:17.104Z,7.80
2022-10-19T15:56:46.953Z,7.80
2022-10-19T15:59:18.359Z,7.80
2022-10-19T16:01:51.366Z,7.60
2022-10-19T16:04:21.974Z,7.60
2022-10-19T16:06:50.182Z,7.50
2022-10-19T16:09:22.114Z,7.40
2022-10-19T16:11:56.350Z,7.50
2022-10-19T16:14:26.366Z,7.40
2022-10-19T16:16:55.770Z,7.30
2022-10-19T16:19:24.142Z,7.40
2022-10-19T16:21:52.395Z,7.40
2022-10-19T16:24:22.021Z,7.30
2022-10-19T16:26:50.535Z,7.30
2022-10-19T16:29:18.706Z,7.30
2022-10-19T16:31:47.084Z,7.20
2022-10-19T16:34:15.360Z,7.20
2022-10-19T16:36:43.530Z,7.20
2022-10-19T16:39:11.778Z,7.20
2022-10-19T16:41:41.402Z,7.20
2022-10-19T16:44:12.766Z,7.10
2022-10-19T16:46:41.062Z,7.20
2022-10-19T16:49:09.357Z,7.10
2022-10-19T16:51:38.732Z,7.20
2022-10-19T16:54:08.739Z,7.10
2022-10-19T16:56:37.712Z,7.20
2022-10-19T16:59:08.095Z,7.20
2022-10-19T17:01:36.581Z,7.10
2022-10-19T17:04:04.928Z,7.10
2022-10-19T17:06:34.948Z,7.00
2022-10-19T17:11:51.583Z,7.00
2022-10-19T17:14:21.130Z,6.90
2022-10-19T17:16:49.489Z,6.90
2022-10-19T17:19:17.849Z,6.80
2022-10-19T17:21:46.073Z,6.80
2022-10-19T17:24:21.729Z,6.80
2022-10-19T17:26:51.559Z,6.70
2022-10-19T17:29:22.325Z,6.70
2022-10-19T17:31:51.227Z,6.70
2022-10-19T17:34:19.999Z,6.70
2022-10-19T17:36:48.483Z,6.60
2022-10-19T17:39:19.410Z,6.60
2022-10-19T17:41:49.351Z,6.60
2022-10-19T17:44:18.815Z,6.50
2022-10-19T17:46:48.935Z,6.40
2022-10-19T17:49:18.779Z,6.40
2022-10-19T17:51:47.018Z,6.40
2022-10-19T17:54:15.704Z,6.40
2022-10-19T17:56:45.397Z,6.30
2022-10-19T17:59:13.918Z,6.30
2022-10-19T18:01:42.281Z,6.20
2022-10-19T18:04:11.875Z,6.20
2022-10-19T18:06:40.202Z,6.30
2022-10-19T18:09:10.343Z,6.10
2022-10-19T18:11:42.566Z,6.10
2022-10-19T18:14:13.059Z,6.10
2022-10-19T18:16:44.593Z,6.00
2022-10-19T18:19:15.547Z,5.90
2022-10-19T18:21:46.019Z,6.00
2022-10-19T18:24:19.199Z,5.90
2022-10-19T18:26:48.519Z,5.90
2022-10-19T18:29:18.988Z,5.80
2022-10-19T18:31:51.319Z,5.80
2022-10-19T18:34:23.130Z,5.70
2022-10-19T18:36:51.832Z,5.70
2022-10-19T18:39:21.306Z,5.70
2022-10-19T18:41:53.731Z,5.70
2022-10-19T18:44:25.496Z,5.60
2022-10-19T18:46:56.356Z,5.60
2022-10-19T18:49:26.491Z,5.60
2022-10-19T18:51:55.864Z,5.50
2022-10-19T18:54:26.379Z,5.50
2022-10-19T18:56:55.032Z,5.50
2022-10-19T18:59:23.705Z,5.50
2022-10-19T19:01:52.168Z,5.40
2022-10-19T19:04:20.473Z,5.40
2022-10-19T19:06:50.020Z,5.30
2022-10-19T19:09:18.987Z,5.30
2022-10-19T19:11:47.301Z,5.30
2022-10-19T19:14:17.798Z,5.30
2022-10-19T19:16:46.746Z,5.20
2022-10-19T19:19:17.537Z,5.30
2022-10-19T19:21:46.317Z,5.20
2022-10-19T19:24:18.094Z,5.20
2022-10-19T19:26:49.430Z,5.60
2022-10-19T19:29:18.098Z,5.30
2022-10-19T19:31:47.267Z,5.10
2022-10-19T19:34:15.748Z,5.10
2022-10-19T19:36:48.044Z,5.10
2022-10-19T19:39:20.066Z,5.10
2022-10-19T19:41:49.291Z,5.00
2022-10-19T19:44:18.129Z,5.00
2022-10-19T19:46:46.371Z,5.00
2022-10-19T19:49:14.872Z,5.00
2022-10-19T19:51:43.146Z,5.00
2022-10-19T19:54:11.586Z,5.10
2022-10-19T19:56:42.345Z,4.90
2022-10-19T19:59:11.877Z,5.00
2022-10-19T20:01:40.464Z,4.90
2022-10-19T20:04:08.712Z,5.00
2022-10-19T20:06:38.512Z,5.00
2022-10-19T20:09:08.267Z,5.00
2022-10-19T20:11:41.229Z,5.00
2022-10-19T20:14:12.293Z,5.00
2022-10-19T20:16:40.789Z,5.10
2022-10-19T20:19:11.487Z,5.10
2022-10-19T20:21:40.479Z,5.10
2022-10-19T20:24:09.026Z,5.10
2022-10-19T20:26:37.819Z,5.10
2022-10-19T20:29:06.560Z,5.00
2022-10-19T20:31:40.337Z,5.10
2022-10-19T20:34:11.037Z,5.10
2022-10-19T20:36:39.289Z,5.00
2022-10-19T20:39:08.112Z,5.00
2022-10-19T20:41:36.718Z,5.00
2022-10-19T20:44:05.167Z,5.00
2022-10-19T20:46:33.537Z,5.00
2022-10-19T20:49:03.552Z,5.00
2022-10-19T20:51:33.334Z,4.90
2022-10-19T20:54:03.277Z,4.90
2022-10-19T20:56:34.175Z,4.90
2022-10-19T21:01:33.819Z,5.00
2022-10-19T21:04:05.875Z,4.90
2022-10-19T21:06:35.978Z,4.90
2022-10-19T21:09:04.459Z,4.90
2022-10-19T21:11:34.451Z,4.90
2022-10-19T21:14:04.471Z,4.90
2022-10-19T21:16:34.106Z,4.90
2022-10-19T21:19:04.943Z,4.80
2022-10-19T21:21:35.672Z,4.80
2022-10-19T21:24:07.112Z,4.80
2022-10-19T21:26:36.879Z,4.80
2022-10-19T21:29:09.423Z,4.70
2022-10-19T21:31:39.179Z,4.70
2022-10-19T21:34:12.776Z,4.70
2022-10-19T21:36:40.983Z,4.70
2022-10-19T21:39:09.258Z,4.70
2022-10-19T21:41:37.456Z,4.60
2022-10-19T21:44:05.975Z,4.60
2022-10-19T21:46:34.325Z,4.60
2022-10-19T21:49:02.558Z,4.70
2022-10-19T21:51:36.128Z,4.60
2022-10-19T21:54:05.105Z,4.50
2022-10-19T21:56:33.780Z,4.50
2022-10-19T21:59:02.126Z,4.50
2022-10-19T22:01:37.234Z,4.50
2022-10-19T22:04:11.954Z,4.40
2022-10-19T22:06:41.899Z,4.40
2022-10-19T22:09:13.221Z,4.40
2022-10-19T22:11:41.496Z,4.40
2022-10-19T22:14:09.844Z,4.30
2022-10-19T22:16:38.092Z,4.30
2022-10-19T22:19:07.001Z,4.20
2022-10-19T22:24:13.543Z,4.10
2022-10-19T22:26:44.095Z,4.10
2022-10-19T22:29:12.246Z,4.00
2022-10-19T22:31:40.735Z,4.00
2022-10-19T22:34:11.007Z,3.90
2022-10-19T22:36:39.243Z,3.90
2022-10-19T22:39:09.113Z,3.90
2022-10-19T22:41:38.633Z,3.90
2022-10-19T22:44:06.958Z,3.80
2022-10-19T22:46:35.197Z,3.80
2022-10-19T22:49:03.465Z,3.70
2022-10-19T22:51:31.676Z,3.90
2022-10-19T22:53:59.798Z,3.70
2022-10-19T22:56:28.161Z,3.70
2022-10-19T22:59:01.088Z,3.70
2022-10-19T23:01:29.640Z,3.70
2022-10-19T23:03:57.810Z,3.70
2022-10-19T23:06:26.181Z,3.60
2022-10-19T23:08:54.859Z,3.60
2022-10-19T23:11:23.401Z,3.60
2022-10-19T23:13:51.630Z,3.70
2022-10-19T23:16:21.281Z,3.70
2022-10-19T23:18:49.424Z,3.60
2022-10-19T23:21:18.368Z,3.50
2022-10-19T23:23:46.623Z,3.50
2022-10-19T23:26:16.646Z,3.50
2022-10-19T23:28:47.558Z,3.40
2022-10-19T23:31:17.810Z,3.40
2022-10-19T23:33:48.011Z,3.20
2022-10-19T23:36:18.701Z,3.20
2022-10-19T23:38:48.574Z,3.10
2022-10-19T23:41:17.763Z,3.10
2022-10-19T23:43:45.984Z,3.00
2022-10-19T23:46:14.652Z,2.90
2022-10-19T23:48:43.939Z,2.90
2022-10-19T23:51:16.388Z,2.80
2022-10-19T23:53:46.223Z,2.80
2022-10-19T23:56:16.961Z,2.70
2022-10-19T23:58:45.753Z,2.70
